createdAt,value
2018-06-12T19:42:16.078Z,21.40
2018-06-12T19:44:44.165Z,19.00
2018-06-12T19:51:32.470Z,12.20
2018-06-12T19:54:02.044Z,18.00
2018-06-12T19:56:31.136Z,16.40
2018-06-12T19:58:59.970Z,14.60
2018-06-12T20:01:28.398Z,15.80
2018-06-12T20:03:56.250Z,14.00
2018-06-12T20:06:25.569Z,14.60
2018-06-12T20:09:25.109Z,15.00
2018-06-12T20:11:53.206Z,13.80
2018-06-12T20:14:20.783Z,11.00
2018-06-12T20:16:51.659Z,14.00
2018-06-12T20:19:23.575Z,14.20
2018-06-12T20:21:58.515Z,13.00
2018-06-12T20:27:02.971Z,9.80
2018-06-12T20:29:32.361Z,11.60
2018-06-12T20:32:01.925Z,12.80
2018-06-12T20:34:30.075Z,11.20
2018-06-12T20:36:59.454Z,15.00
2018-06-12T20:39:29.929Z,14.00
2018-06-12T20:41:58.219Z,13.20
2018-06-12T20:44:28.682Z,13.60
2018-06-12T20:46:57.873Z,11.20
2018-06-12T20:49:27.634Z,8.20
2018-06-12T20:51:56.325Z,9.40
2018-06-12T20:54:27.452Z,11.20
2018-06-12T20:56:56.662Z,11.20
2018-06-12T20:59:25.236Z,13.40
2018-06-12T21:01:53.442Z,9.20
2018-06-12T21:04:22.322Z,12.60
2018-06-12T21:06:51.114Z,10.40
2018-06-12T21:09:20.191Z,11.20
2018-06-12T21:11:47.755Z,11.60
2018-06-12T21:14:16.246Z,10.00
2018-06-12T21:16:44.419Z,10.20
2018-06-12T21:19:14.291Z,12.80
2018-06-12T21:21:43.103Z,14.00
2018-06-12T21:24:15.538Z,10.80
2018-06-12T21:26:43.364Z,11.00
2018-06-12T21:29:15.154Z,12.00
2018-06-12T21:34:23.658Z,10.40
2018-06-12T21:36:56.143Z,10.40
2018-06-12T21:39:24.911Z,10.00
2018-06-12T21:41:52.759Z,10.80
2018-06-12T21:44:20.317Z,13.80
2018-06-12T21:46:47.902Z,11.60
2018-06-12T21:49:15.794Z,11.20
2018-06-12T21:51:44.290Z,11.40
2018-06-12T21:54:11.851Z,10.00
2018-06-12T21:56:40.684Z,8.40
2018-06-12T21:59:08.230Z,9.80
2018-06-12T22:01:39.387Z,10.00
2018-06-12T22:04:07.916Z,9.20
2018-06-12T22:06:35.538Z,10.60
2018-06-12T22:09:03.233Z,9.80
2018-06-12T22:11:31.919Z,10.60
2018-06-12T22:14:00.068Z,10.00
2018-06-12T22:16:27.664Z,8.60
2018-06-12T22:18:55.711Z,11.40
2018-06-12T22:21:28.086Z,11.00
2018-06-12T22:23:56.314Z,13.00
2018-06-12T22:26:24.929Z,10.60
2018-06-12T22:28:52.511Z,9.20
2018-06-12T22:31:20.083Z,9.00
2018-06-12T22:33:49.410Z,9.00
2018-06-12T22:36:18.153Z,11.00
2018-06-12T22:38:46.515Z,10.80
2018-06-12T22:41:14.493Z,9.00
2018-06-12T22:43:44.638Z,10.00
2018-06-12T22:46:12.446Z,10.00
2018-06-12T22:48:40.006Z,8.20
2018-06-12T22:51:07.549Z,10.40
2018-06-12T22:53:35.355Z,12.40
2018-06-12T22:56:03.361Z,9.60
2018-06-12T22:58:30.957Z,10.60
2018-06-12T23:00:58.547Z,10.00
2018-06-12T23:03:27.433Z,7.80
2018-06-12T23:05:55.821Z,10.00
2018-06-12T23:08:24.227Z,9.20
2018-06-12T23:10:52.441Z,10.40
2018-06-12T23:13:20.038Z,10.00
2018-06-12T23:15:47.629Z,8.00
2018-06-12T23:18:15.598Z,9.40
2018-06-12T23:20:43.156Z,10.00
2018-06-12T23:23:10.730Z,9.40
2018-06-12T23:25:42.523Z,8.80
2018-06-12T23:28:10.124Z,8.40
2018-06-12T23:30:39.365Z,10.80
2018-06-12T23:33:07.508Z,8.20
2018-06-12T23:35:35.106Z,8.40
2018-06-12T23:38:02.693Z,7.40
2018-06-12T23:40:31.531Z,8.20
2018-06-12T23:42:59.131Z,9.00
2018-06-12T23:45:26.666Z,8.00
2018-06-12T23:47:55.402Z,9.20
2018-06-12T23:50:25.456Z,9.00
2018-06-12T23:52:53.139Z,9.60
2018-06-12T23:55:20.706Z,8.60
2018-06-12T23:57:49.242Z,9.00
